This is the latest recevied weather packets stored in our database for station/object KB9GXK. If no packets are shown the sender has not sent any weather packets the latest 10 day(s).
| Time | Temp. | Humidity | Pressure | Rain* | Wind** | Luminosity | Snow |
|---|---|---|---|---|---|---|---|
| 1777450739 | 11.67° C | 68% | 1013.6 hPa | 0 mm | - | 0 W/m² | - |
| 1777450434 | 11.67° C | 67% | 1013.3 hPa | 0 mm | - | 0 W/m² | - |
| 1777450131 | 11.67° C | 68% | 1013.5 hPa | 0 mm | - | 0 W/m² | - |
| 1777449828 | 11.11° C | 69% | 1013.2 hPa | 0 mm | - | 0 W/m² | - |
| 1777449524 | 11.11° C | 70% | 1013.5 hPa | 0 mm | - | 0 W/m² | - |
| 1777449219 | 11.67° C | 70% | 1013.5 hPa | 0 mm | - | 0 W/m² | - |
| 1777448613 | 11.67° C | 69% | 1013.3 hPa | 0 mm | - | 0 W/m² | - |
| 1777448310 | 11.67° C | 70% | 1013.5 hPa | 0 mm | - | 0 W/m² | - |
| 1777448006 | 11.67° C | 70% | 1013.5 hPa | 0 mm | - | 0 W/m² | - |
| 1777447701 | 11.67° C | 70% | 1013.5 hPa | 0 mm | - | 0 W/m² | - |
| 1777447398 | 11.67° C | 72% | 1013.3 hPa | 0 mm | - | 0 W/m² | - |
| 1777447095 | 11.67° C | 70% | 1013.3 hPa | 0 mm | - | 0 W/m² | - |
| 1777446794 | 11.67° C | 70% | 1013.3 hPa | 0 mm | - | 0 W/m² | - |
| 1777446494 | 11.67° C | 70% | 1013.2 hPa | 0 mm | - | 0 W/m² | - |
| 1777446190 | 11.67° C | 70% | 1013.2 hPa | 0 mm | - | 0 W/m² | - |
| 1777445887 | 11.67° C | 69% | 1013.2 hPa | 0 mm | - | 0 W/m² | - |
| 1777445583 | 12.22° C | 69% | 1013.1 hPa | 0 mm | - | 0 W/m² | - |
| 1777445281 | 12.22° C | 67% | 1013 hPa | 0 mm | - | 0 W/m² | - |
| 1777444671 | 11.67° C | 71% | 1013.4 hPa | 0 mm | - | 0 W/m² | - |
| 1777444368 | 11.67° C | 71% | 1013.5 hPa | 0 mm | - | 0 W/m² | - |
| 1777444066 | 11.11° C | 71% | 1013.5 hPa | 0 mm | - | 0 W/m² | - |
| 1777443761 | 11.67° C | 71% | 1013.6 hPa | 0 mm | - | 0 W/m² | - |
| 1777443456 | 11.67° C | 71% | 1013.5 hPa | 0 mm | - | 0 W/m² | - |
| 1777443154 | 11.67° C | 70% | 1013.4 hPa | 0 mm | - | 0 W/m² | - |
| 1777442851 | 11.67° C | 70% | 1013.4 hPa | 0 mm | - | 0 W/m² | - |
* Rain latest hour (hover to see other rain measurements)
** Current wind speed in m/s (hover to see current wind gust speed)